sensor_id;sensor_type;location;lat;lon;timestamp;temperature;humidity
22738;DHT22;11536;50.860;4.286;2024-01-30T00:01:38;11.60;99.90
22738;DHT22;11536;50.860;4.286;2024-01-30T00:04:03;11.60;99.90
22738;DHT22;11536;50.860;4.286;2024-01-30T00:06:29;11.60;99.90
22738;DHT22;11536;50.860;4.286;2024-01-30T00:08:54;11.60;99.90
22738;DHT22;11536;50.860;4.286;2024-01-30T00:11:20;11.70;99.90
22738;DHT22;11536;50.860;4.286;2024-01-30T00:13:46;11.70;99.90
22738;DHT22;11536;50.860;4.286;2024-01-30T00:16:25;11.70;99.90
22738;DHT22;11536;50.860;4.286;2024-01-30T00:18:51;11.70;99.90
22738;DHT22;11536;50.860;4.286;2024-01-30T00:21:17;11.70;99.90
22738;DHT22;11536;50.860;4.286;2024-01-30T00:23:43;11.70;99.90
22738;DHT22;11536;50.860;4.286;2024-01-30T00:26:09;11.70;99.90
22738;DHT22;11536;50.860;4.286;2024-01-30T00:28:35;11.70;99.90
22738;DHT22;11536;50.860;4.286;2024-01-30T00:31:01;11.70;99.90
22738;DHT22;11536;50.860;4.286;2024-01-30T00:33:26;11.70;99.90
22738;DHT22;11536;50.860;4.286;2024-01-30T00:35:52;11.80;99.90
22738;DHT22;11536;50.860;4.286;2024-01-30T00:38:17;11.80;99.90
22738;DHT22;11536;50.860;4.286;2024-01-30T00:40:43;11.80;99.90
22738;DHT22;11536;50.860;4.286;2024-01-30T00:43:09;11.90;99.90
22738;DHT22;11536;50.860;4.286;2024-01-30T00:45:34;11.90;99.90
22738;DHT22;11536;50.860;4.286;2024-01-30T00:48:00;11.90;99.90
22738;DHT22;11536;50.860;4.286;2024-01-30T00:50:25;11.90;99.90
22738;DHT22;11536;50.860;4.286;2024-01-30T00:52:51;11.90;99.90
22738;DHT22;11536;50.860;4.286;2024-01-30T00:55:16;11.90;99.90
22738;DHT22;11536;50.860;4.286;2024-01-30T00:57:42;11.80;99.90
22738;DHT22;11536;50.860;4.286;2024-01-30T01:00:08;11.90;99.90
22738;DHT22;11536;50.860;4.286;2024-01-30T01:02:35;11.90;99.90
22738;DHT22;11536;50.860;4.286;2024-01-30T01:05:01;11.90;99.90
22738;DHT22;11536;50.860;4.286;2024-01-30T01:07:27;11.90;99.90
22738;DHT22;11536;50.860;4.286;2024-01-30T01:09:52;11.90;99.90
22738;DHT22;11536;50.860;4.286;2024-01-30T01:12:18;11.90;99.90
22738;DHT22;11536;50.860;4.286;2024-01-30T01:14:43;11.90;99.90
22738;DHT22;11536;50.860;4.286;2024-01-30T01:17:09;11.80;99.90
22738;DHT22;11536;50.860;4.286;2024-01-30T01:19:35;11.80;99.90
22738;DHT22;11536;50.860;4.286;2024-01-30T01:22:00;11.90;99.90
22738;DHT22;11536;50.860;4.286;2024-01-30T01:24:26;11.90;99.90
22738;DHT22;11536;50.860;4.286;2024-01-30T01:26:51;11.90;99.90
22738;DHT22;11536;50.860;4.286;2024-01-30T01:29:17;11.90;99.90
22738;DHT22;11536;50.860;4.286;2024-01-30T01:31:43;11.90;99.90
22738;DHT22;11536;50.860;4.286;2024-01-30T01:34:13;11.90;99.90
22738;DHT22;11536;50.860;4.286;2024-01-30T01:36:39;11.90;99.90
22738;DHT22;11536;50.860;4.286;2024-01-30T01:39:05;12.00;99.90
22738;DHT22;11536;50.860;4.286;2024-01-30T01:41:31;12.00;99.90
22738;DHT22;11536;50.860;4.286;2024-01-30T01:43:57;12.00;99.90
22738;DHT22;11536;50.860;4.286;2024-01-30T01:46:26;12.00;99.90
22738;DHT22;11536;50.860;4.286;2024-01-30T01:48:52;12.00;99.90
22738;DHT22;11536;50.860;4.286;2024-01-30T01:51:17;12.00;99.90
22738;DHT22;11536;50.860;4.286;2024-01-30T01:53:43;12.00;99.90
22738;DHT22;11536;50.860;4.286;2024-01-30T01:56:09;12.00;99.90
22738;DHT22;11536;50.860;4.286;2024-01-30T01:58:35;12.00;99.90
22738;DHT22;11536;50.860;4.286;2024-01-30T02:01:02;12.00;99.90
22738;DHT22;11536;50.860;4.286;2024-01-30T02:03:30;12.00;99.90
22738;DHT22;11536;50.860;4.286;2024-01-30T02:05:56;12.00;99.90
22738;DHT22;11536;50.860;4.286;2024-01-30T02:08:23;12.00;99.90
22738;DHT22;11536;50.860;4.286;2024-01-30T02:10:49;12.00;99.90
22738;DHT22;11536;50.860;4.286;2024-01-30T02:13:15;12.00;99.90
22738;DHT22;11536;50.860;4.286;2024-01-30T02:15:40;12.10;99.90
22738;DHT22;11536;50.860;4.286;2024-01-30T02:18:06;12.10;99.90
22738;DHT22;11536;50.860;4.286;2024-01-30T02:20:34;12.10;99.90
22738;DHT22;11536;50.860;4.286;2024-01-30T02:23:01;12.10;99.90
22738;DHT22;11536;50.860;4.286;2024-01-30T02:25:40;12.10;99.90
22738;DHT22;11536;50.860;4.286;2024-01-30T02:28:14;12.10;99.90
22738;DHT22;11536;50.860;4.286;2024-01-30T02:30:40;12.10;99.90
22738;DHT22;11536;50.860;4.286;2024-01-30T02:33:06;12.10;99.90
22738;DHT22;11536;50.860;4.286;2024-01-30T02:35:31;12.10;99.90
22738;DHT22;11536;50.860;4.286;2024-01-30T02:37:57;12.10;99.90
22738;DHT22;11536;50.860;4.286;2024-01-30T02:40:23;12.10;99.90
22738;DHT22;11536;50.860;4.286;2024-01-30T02:42:48;12.10;99.90
22738;DHT22;11536;50.860;4.286;2024-01-30T02:45:14;12.10;99.90
22738;DHT22;11536;50.860;4.286;2024-01-30T02:47:40;12.10;99.90
22738;DHT22;11536;50.860;4.286;2024-01-30T02:50:06;12.10;99.90
22738;DHT22;11536;50.860;4.286;2024-01-30T02:52:32;12.10;99.90
22738;DHT22;11536;50.860;4.286;2024-01-30T02:54:58;12.10;99.90
22738;DHT22;11536;50.860;4.286;2024-01-30T02:57:23;12.10;99.90
22738;DHT22;11536;50.860;4.286;2024-01-30T02:59:49;12.10;99.90
22738;DHT22;11536;50.860;4.286;2024-01-30T03:02:15;12.10;99.90
22738;DHT22;11536;50.860;4.286;2024-01-30T03:04:41;12.10;99.90
22738;DHT22;11536;50.860;4.286;2024-01-30T03:07:07;12.10;99.90
22738;DHT22;11536;50.860;4.286;2024-01-30T03:09:32;12.20;99.90
22738;DHT22;11536;50.860;4.286;2024-01-30T03:11:58;12.10;99.90
22738;DHT22;11536;50.860;4.286;2024-01-30T03:14:24;12.20;99.90
22738;DHT22;11536;50.860;4.286;2024-01-30T03:16:49;12.10;99.90
22738;DHT22;11536;50.860;4.286;2024-01-30T03:19:15;12.10;99.90
22738;DHT22;11536;50.860;4.286;2024-01-30T03:21:41;12.10;99.90
22738;DHT22;11536;50.860;4.286;2024-01-30T03:24:06;12.10;99.90
22738;DHT22;11536;50.860;4.286;2024-01-30T03:26:32;12.10;99.90
22738;DHT22;11536;50.860;4.286;2024-01-30T03:28:57;12.10;99.90
22738;DHT22;11536;50.860;4.286;2024-01-30T03:31:23;12.10;99.90
22738;DHT22;11536;50.860;4.286;2024-01-30T03:33:49;12.10;99.90
22738;DHT22;11536;50.860;4.286;2024-01-30T03:36:15;12.10;99.90
22738;DHT22;11536;50.860;4.286;2024-01-30T03:38:41;12.10;99.90
22738;DHT22;11536;50.860;4.286;2024-01-30T03:41:09;12.10;99.90
22738;DHT22;11536;50.860;4.286;2024-01-30T03:43:36;12.10;99.90
22738;DHT22;11536;50.860;4.286;2024-01-30T03:46:02;12.10;99.90
22738;DHT22;11536;50.860;4.286;2024-01-30T03:48:28;12.10;99.90
22738;DHT22;11536;50.860;4.286;2024-01-30T03:50:54;12.00;99.90
22738;DHT22;11536;50.860;4.286;2024-01-30T03:53:19;12.00;99.90
22738;DHT22;11536;50.860;4.286;2024-01-30T03:55:45;12.00;99.90
22738;DHT22;11536;50.860;4.286;2024-01-30T03:58:11;12.00;99.90
22738;DHT22;11536;50.860;4.286;2024-01-30T04:00:36;12.00;99.90
22738;DHT22;11536;50.860;4.286;2024-01-30T04:03:02;12.00;99.90
22738;DHT22;11536;50.860;4.286;2024-01-30T04:05:28;12.00;99.90
22738;DHT22;11536;50.860;4.286;2024-01-30T04:07:53;12.00;99.90
22738;DHT22;11536;50.860;4.286;2024-01-30T04:10:19;12.00;99.90
22738;DHT22;11536;50.860;4.286;2024-01-30T04:12:45;12.00;99.90
22738;DHT22;11536;50.860;4.286;2024-01-30T04:15:10;12.00;99.90
22738;DHT22;11536;50.860;4.286;2024-01-30T04:17:36;12.00;99.90
22738;DHT22;11536;50.860;4.286;2024-01-30T04:20:02;12.00;99.90
22738;DHT22;11536;50.860;4.286;2024-01-30T04:22:27;12.00;99.90
22738;DHT22;11536;50.860;4.286;2024-01-30T04:24:53;12.00;99.90
22738;DHT22;11536;50.860;4.286;2024-01-30T04:27:18;12.00;99.90
22738;DHT22;11536;50.860;4.286;2024-01-30T04:29:44;11.90;99.90
22738;DHT22;11536;50.860;4.286;2024-01-30T04:32:10;12.00;99.90
22738;DHT22;11536;50.860;4.286;2024-01-30T04:34:36;11.90;99.90
22738;DHT22;11536;50.860;4.286;2024-01-30T04:37:02;11.90;99.90
22738;DHT22;11536;50.860;4.286;2024-01-30T04:39:27;11.90;99.90
22738;DHT22;11536;50.860;4.286;2024-01-30T04:41:53;11.90;99.90
22738;DHT22;11536;50.860;4.286;2024-01-30T04:44:19;11.90;99.90
22738;DHT22;11536;50.860;4.286;2024-01-30T04:46:44;11.90;99.90
22738;DHT22;11536;50.860;4.286;2024-01-30T04:49:10;11.90;99.90
22738;DHT22;11536;50.860;4.286;2024-01-30T04:51:36;11.90;99.90
22738;DHT22;11536;50.860;4.286;2024-01-30T04:54:01;11.90;99.90
22738;DHT22;11536;50.860;4.286;2024-01-30T04:56:27;11.90;99.90
22738;DHT22;11536;50.860;4.286;2024-01-30T04:58:53;11.90;99.90
22738;DHT22;11536;50.860;4.286;2024-01-30T05:01:18;11.90;99.90
22738;DHT22;11536;50.860;4.286;2024-01-30T05:03:44;11.90;99.90
22738;DHT22;11536;50.860;4.286;2024-01-30T05:06:10;11.90;99.90
22738;DHT22;11536;50.860;4.286;2024-01-30T05:08:36;11.80;99.90
22738;DHT22;11536;50.860;4.286;2024-01-30T05:11:05;11.90;99.90
22738;DHT22;11536;50.860;4.286;2024-01-30T05:13:31;11.90;99.90
22738;DHT22;11536;50.860;4.286;2024-01-30T05:15:57;11.90;99.90
22738;DHT22;11536;50.860;4.286;2024-01-30T05:18:22;11.90;99.90
22738;DHT22;11536;50.860;4.286;2024-01-30T05:20:50;11.90;99.90
22738;DHT22;11536;50.860;4.286;2024-01-30T05:23:16;11.90;99.90
22738;DHT22;11536;50.860;4.286;2024-01-30T05:25:42;11.90;99.90
22738;DHT22;11536;50.860;4.286;2024-01-30T05:28:07;11.90;99.90
22738;DHT22;11536;50.860;4.286;2024-01-30T05:30:33;11.90;99.90
22738;DHT22;11536;50.860;4.286;2024-01-30T05:32:59;11.80;99.90
22738;DHT22;11536;50.860;4.286;2024-01-30T05:35:24;11.90;99.90
22738;DHT22;11536;50.860;4.286;2024-01-30T05:37:50;11.80;99.90
22738;DHT22;11536;50.860;4.286;2024-01-30T05:40:16;11.90;99.90
22738;DHT22;11536;50.860;4.286;2024-01-30T05:42:42;11.90;99.90
22738;DHT22;11536;50.860;4.286;2024-01-30T05:45:08;11.90;99.90
22738;DHT22;11536;50.860;4.286;2024-01-30T05:47:36;11.90;99.90
22738;DHT22;11536;50.860;4.286;2024-01-30T05:50:02;11.90;99.90
22738;DHT22;11536;50.860;4.286;2024-01-30T05:52:28;11.90;99.90
22738;DHT22;11536;50.860;4.286;2024-01-30T05:54:54;11.90;99.90
22738;DHT22;11536;50.860;4.286;2024-01-30T05:57:20;11.90;99.90
22738;DHT22;11536;50.860;4.286;2024-01-30T05:59:45;11.90;99.90
22738;DHT22;11536;50.860;4.286;2024-01-30T06:02:13;11.90;99.90
22738;DHT22;11536;50.860;4.286;2024-01-30T06:04:39;11.90;99.90
22738;DHT22;11536;50.860;4.286;2024-01-30T06:07:04;12.00;99.90
22738;DHT22;11536;50.860;4.286;2024-01-30T06:09:31;11.90;99.90
22738;DHT22;11536;50.860;4.286;2024-01-30T06:11:57;11.90;99.90
22738;DHT22;11536;50.860;4.286;2024-01-30T06:14:23;11.90;99.90
22738;DHT22;11536;50.860;4.286;2024-01-30T06:16:48;11.90;99.90
22738;DHT22;11536;50.860;4.286;2024-01-30T06:19:14;11.90;99.90
22738;DHT22;11536;50.860;4.286;2024-01-30T06:21:40;11.90;99.90
22738;DHT22;11536;50.860;4.286;2024-01-30T06:24:05;11.90;99.90
22738;DHT22;11536;50.860;4.286;2024-01-30T06:26:31;11.90;99.90
22738;DHT22;11536;50.860;4.286;2024-01-30T06:28:56;11.90;99.90
22738;DHT22;11536;50.860;4.286;2024-01-30T06:31:23;11.90;99.90
22738;DHT22;11536;50.860;4.286;2024-01-30T06:33:49;11.90;99.90
22738;DHT22;11536;50.860;4.286;2024-01-30T06:36:16;11.90;99.90
22738;DHT22;11536;50.860;4.286;2024-01-30T06:38:41;11.90;99.90
22738;DHT22;11536;50.860;4.286;2024-01-30T06:41:07;11.90;99.90
22738;DHT22;11536;50.860;4.286;2024-01-30T06:43:33;11.90;99.90
22738;DHT22;11536;50.860;4.286;2024-01-30T06:45:58;11.90;99.90
22738;DHT22;11536;50.860;4.286;2024-01-30T06:48:25;11.90;99.90
22738;DHT22;11536;50.860;4.286;2024-01-30T06:50:53;11.90;99.90
22738;DHT22;11536;50.860;4.286;2024-01-30T06:53:19;11.90;99.90
22738;DHT22;11536;50.860;4.286;2024-01-30T06:55:45;11.90;99.90
22738;DHT22;11536;50.860;4.286;2024-01-30T06:58:11;11.90;99.90
22738;DHT22;11536;50.860;4.286;2024-01-30T07:00:37;11.90;99.90
22738;DHT22;11536;50.860;4.286;2024-01-30T07:03:03;11.90;99.90
22738;DHT22;11536;50.860;4.286;2024-01-30T07:05:28;11.90;99.90
22738;DHT22;11536;50.860;4.286;2024-01-30T07:07:54;11.90;99.90
22738;DHT22;11536;50.860;4.286;2024-01-30T07:10:19;11.90;99.90
22738;DHT22;11536;50.860;4.286;2024-01-30T07:12:45;11.90;99.90
22738;DHT22;11536;50.860;4.286;2024-01-30T07:15:11;11.90;99.90
22738;DHT22;11536;50.860;4.286;2024-01-30T07:17:36;11.90;99.90
22738;DHT22;11536;50.860;4.286;2024-01-30T07:20:03;11.90;99.90
22738;DHT22;11536;50.860;4.286;2024-01-30T07:22:31;12.00;99.90
22738;DHT22;11536;50.860;4.286;2024-01-30T07:24:57;12.00;99.90
22738;DHT22;11536;50.860;4.286;2024-01-30T07:27:22;12.00;99.90
22738;DHT22;11536;50.860;4.286;2024-01-30T07:29:48;12.00;99.90
22738;DHT22;11536;50.860;4.286;2024-01-30T07:32:14;12.00;99.90
22738;DHT22;11536;50.860;4.286;2024-01-30T07:34:39;12.00;99.90
22738;DHT22;11536;50.860;4.286;2024-01-30T07:37:05;12.00;99.90
22738;DHT22;11536;50.860;4.286;2024-01-30T07:39:34;12.00;99.90
22738;DHT22;11536;50.860;4.286;2024-01-30T07:41:59;12.00;99.90
22738;DHT22;11536;50.860;4.286;2024-01-30T07:44:25;12.00;99.90
22738;DHT22;11536;50.860;4.286;2024-01-30T07:46:51;12.00;99.90
22738;DHT22;11536;50.860;4.286;2024-01-30T07:49:16;12.00;99.90
22738;DHT22;11536;50.860;4.286;2024-01-30T07:51:42;12.00;99.90
22738;DHT22;11536;50.860;4.286;2024-01-30T07:54:11;12.00;99.90
22738;DHT22;11536;50.860;4.286;2024-01-30T07:56:37;12.00;99.90
22738;DHT22;11536;50.860;4.286;2024-01-30T07:59:02;12.00;99.90
22738;DHT22;11536;50.860;4.286;2024-01-30T08:01:29;12.00;99.90
22738;DHT22;11536;50.860;4.286;2024-01-30T08:03:54;12.00;99.90
22738;DHT22;11536;50.860;4.286;2024-01-30T08:06:20;12.00;99.90
22738;DHT22;11536;50.860;4.286;2024-01-30T08:08:46;12.00;99.90
22738;DHT22;11536;50.860;4.286;2024-01-30T08:11:12;11.90;99.90
22738;DHT22;11536;50.860;4.286;2024-01-30T08:13:37;12.00;99.90
22738;DHT22;11536;50.860;4.286;2024-01-30T08:16:03;12.00;99.90
22738;DHT22;11536;50.860;4.286;2024-01-30T08:18:29;12.00;99.90
22738;DHT22;11536;50.860;4.286;2024-01-30T08:20:55;11.90;99.90
22738;DHT22;11536;50.860;4.286;2024-01-30T08:23:21;11.90;99.90
22738;DHT22;11536;50.860;4.286;2024-01-30T08:25:46;11.90;99.90
22738;DHT22;11536;50.860;4.286;2024-01-30T08:28:12;12.00;99.90
22738;DHT22;11536;50.860;4.286;2024-01-30T08:30:38;12.00;99.90
22738;DHT22;11536;50.860;4.286;2024-01-30T08:33:05;11.90;99.90
22738;DHT22;11536;50.860;4.286;2024-01-30T08:35:30;12.00;99.90
22738;DHT22;11536;50.860;4.286;2024-01-30T08:37:59;12.00;99.90
22738;DHT22;11536;50.860;4.286;2024-01-30T08:40:24;12.00;99.90
22738;DHT22;11536;50.860;4.286;2024-01-30T08:42:50;12.00;99.90
22738;DHT22;11536;50.860;4.286;2024-01-30T08:45:16;12.10;99.90
22738;DHT22;11536;50.860;4.286;2024-01-30T08:47:42;12.10;99.90
22738;DHT22;11536;50.860;4.286;2024-01-30T08:50:08;12.10;99.90
22738;DHT22;11536;50.860;4.286;2024-01-30T08:52:33;12.10;99.90
22738;DHT22;11536;50.860;4.286;2024-01-30T08:55:00;12.20;99.90
22738;DHT22;11536;50.860;4.286;2024-01-30T08:57:25;12.20;99.90
22738;DHT22;11536;50.860;4.286;2024-01-30T08:59:54;12.20;99.90
22738;DHT22;11536;50.860;4.286;2024-01-30T09:02:20;12.20;99.90
22738;DHT22;11536;50.860;4.286;2024-01-30T09:04:46;12.20;99.90
22738;DHT22;11536;50.860;4.286;2024-01-30T09:07:12;12.20;99.90
22738;DHT22;11536;50.860;4.286;2024-01-30T09:09:39;12.20;99.90
22738;DHT22;11536;50.860;4.286;2024-01-30T09:12:07;12.20;99.90
22738;DHT22;11536;50.860;4.286;2024-01-30T09:14:38;12.30;99.90
22738;DHT22;11536;50.860;4.286;2024-01-30T09:17:04;12.30;99.90
22738;DHT22;11536;50.860;4.286;2024-01-30T09:19:31;12.20;99.90
22738;DHT22;11536;50.860;4.286;2024-01-30T09:21:57;12.30;99.90
22738;DHT22;11536;50.860;4.286;2024-01-30T09:24:22;12.30;99.90
22738;DHT22;11536;50.860;4.286;2024-01-30T09:26:48;12.30;99.90
22738;DHT22;11536;50.860;4.286;2024-01-30T09:29:14;12.30;99.90
22738;DHT22;11536;50.860;4.286;2024-01-30T09:31:39;12.20;99.90
22738;DHT22;11536;50.860;4.286;2024-01-30T09:34:08;12.20;99.90
22738;DHT22;11536;50.860;4.286;2024-01-30T09:36:33;12.20;99.90
22738;DHT22;11536;50.860;4.286;2024-01-30T09:38:59;12.20;99.90
22738;DHT22;11536;50.860;4.286;2024-01-30T09:41:27;12.20;99.90
22738;DHT22;11536;50.860;4.286;2024-01-30T09:43:54;12.20;99.90
22738;DHT22;11536;50.860;4.286;2024-01-30T09:46:26;12.20;99.90
22738;DHT22;11536;50.860;4.286;2024-01-30T09:48:55;12.20;99.90
22738;DHT22;11536;50.860;4.286;2024-01-30T09:51:23;12.20;99.90
22738;DHT22;11536;50.860;4.286;2024-01-30T09:53:49;12.20;99.90
22738;DHT22;11536;50.860;4.286;2024-01-30T09:56:15;12.20;99.90
22738;DHT22;11536;50.860;4.286;2024-01-30T09:58:42;12.30;99.90
22738;DHT22;11536;50.860;4.286;2024-01-30T10:01:07;12.30;99.90
22738;DHT22;11536;50.860;4.286;2024-01-30T10:03:33;12.30;99.90
22738;DHT22;11536;50.860;4.286;2024-01-30T10:05:59;12.30;99.90
22738;DHT22;11536;50.860;4.286;2024-01-30T10:08:26;12.30;99.90
22738;DHT22;11536;50.860;4.286;2024-01-30T10:10:52;12.30;99.90
22738;DHT22;11536;50.860;4.286;2024-01-30T10:13:18;12.20;99.90
22738;DHT22;11536;50.860;4.286;2024-01-30T10:15:44;12.30;99.90
22738;DHT22;11536;50.860;4.286;2024-01-30T10:18:13;12.30;99.90
22738;DHT22;11536;50.860;4.286;2024-01-30T10:20:38;12.30;99.90
22738;DHT22;11536;50.860;4.286;2024-01-30T10:23:04;12.30;99.90
22738;DHT22;11536;50.860;4.286;2024-01-30T10:25:33;12.30;99.90
22738;DHT22;11536;50.860;4.286;2024-01-30T10:27:58;12.30;99.90
22738;DHT22;11536;50.860;4.286;2024-01-30T10:30:24;12.30;99.90
22738;DHT22;11536;50.860;4.286;2024-01-30T10:32:50;12.30;99.90
22738;DHT22;11536;50.860;4.286;2024-01-30T10:35:16;12.30;99.90
22738;DHT22;11536;50.860;4.286;2024-01-30T10:37:47;12.20;99.90
22738;DHT22;11536;50.860;4.286;2024-01-30T10:40:14;12.30;99.90
22738;DHT22;11536;50.860;4.286;2024-01-30T10:42:43;12.30;99.90
22738;DHT22;11536;50.860;4.286;2024-01-30T10:45:13;12.30;99.90
22738;DHT22;11536;50.860;4.286;2024-01-30T10:47:43;12.30;99.90
22738;DHT22;11536;50.860;4.286;2024-01-30T10:50:09;12.30;99.90
22738;DHT22;11536;50.860;4.286;2024-01-30T10:52:36;12.20;99.90
22738;DHT22;11536;50.860;4.286;2024-01-30T10:55:04;12.20;99.90
22738;DHT22;11536;50.860;4.286;2024-01-30T10:57:34;12.20;99.90
22738;DHT22;11536;50.860;4.286;2024-01-30T11:00:02;12.10;99.90
22738;DHT22;11536;50.860;4.286;2024-01-30T11:02:32;12.10;99.90
22738;DHT22;11536;50.860;4.286;2024-01-30T11:04:58;12.00;99.90
22738;DHT22;11536;50.860;4.286;2024-01-30T11:07:29;11.90;99.90
22738;DHT22;11536;50.860;4.286;2024-01-30T11:12:27;11.80;99.90
22738;DHT22;11536;50.860;4.286;2024-01-30T11:20:28;11.70;99.90
22738;DHT22;11536;50.860;4.286;2024-01-30T11:22:57;11.60;99.90
22738;DHT22;11536;50.860;4.286;2024-01-30T11:25:23;11.70;99.90
22738;DHT22;11536;50.860;4.286;2024-01-30T11:27:53;11.70;99.90
22738;DHT22;11536;50.860;4.286;2024-01-30T11:30:23;11.70;99.90
22738;DHT22;11536;50.860;4.286;2024-01-30T11:33:05;11.70;99.90
22738;DHT22;11536;50.860;4.286;2024-01-30T11:35:36;11.70;99.90
22738;DHT22;11536;50.860;4.286;2024-01-30T11:38:03;11.80;99.90
22738;DHT22;11536;50.860;4.286;2024-01-30T11:40:30;11.80;99.90
22738;DHT22;11536;50.860;4.286;2024-01-30T11:42:58;11.80;99.90
22738;DHT22;11536;50.860;4.286;2024-01-30T11:45:24;11.90;99.90
22738;DHT22;11536;50.860;4.286;2024-01-30T11:47:50;11.90;99.90
22738;DHT22;11536;50.860;4.286;2024-01-30T11:50:16;11.90;99.90
22738;DHT22;11536;50.860;4.286;2024-01-30T11:52:42;11.90;99.90
22738;DHT22;11536;50.860;4.286;2024-01-30T11:55:09;11.90;99.90
22738;DHT22;11536;50.860;4.286;2024-01-30T11:57:35;11.90;99.90
22738;DHT22;11536;50.860;4.286;2024-01-30T12:00:03;11.90;99.90
22738;DHT22;11536;50.860;4.286;2024-01-30T12:02:38;11.90;99.90
22738;DHT22;11536;50.860;4.286;2024-01-30T12:05:08;11.80;99.90
22738;DHT22;11536;50.860;4.286;2024-01-30T12:07:35;11.80;99.90
22738;DHT22;11536;50.860;4.286;2024-01-30T12:10:01;11.80;99.90
22738;DHT22;11536;50.860;4.286;2024-01-30T12:12:27;11.90;99.90
22738;DHT22;11536;50.860;4.286;2024-01-30T12:14:54;11.90;99.90
22738;DHT22;11536;50.860;4.286;2024-01-30T12:17:30;11.90;99.90
22738;DHT22;11536;50.860;4.286;2024-01-30T12:20:06;11.90;99.90
22738;DHT22;11536;50.860;4.286;2024-01-30T12:22:42;11.90;99.90
22738;DHT22;11536;50.860;4.286;2024-01-30T12:25:13;11.80;99.90
22738;DHT22;11536;50.860;4.286;2024-01-30T12:27:41;11.90;99.90
22738;DHT22;11536;50.860;4.286;2024-01-30T12:30:11;11.90;99.90
22738;DHT22;11536;50.860;4.286;2024-01-30T12:32:40;11.90;99.90
22738;DHT22;11536;50.860;4.286;2024-01-30T12:35:14;11.80;99.90
22738;DHT22;11536;50.860;4.286;2024-01-30T12:37:41;11.80;99.90
22738;DHT22;11536;50.860;4.286;2024-01-30T12:40:10;11.80;99.90
22738;DHT22;11536;50.860;4.286;2024-01-30T12:42:37;11.80;99.90
22738;DHT22;11536;50.860;4.286;2024-01-30T12:45:03;11.90;99.90
22738;DHT22;11536;50.860;4.286;2024-01-30T12:47:30;11.90;99.90
22738;DHT22;11536;50.860;4.286;2024-01-30T12:49:55;11.90;99.90
22738;DHT22;11536;50.860;4.286;2024-01-30T12:52:22;11.90;99.90
22738;DHT22;11536;50.860;4.286;2024-01-30T12:54:48;11.90;99.90
22738;DHT22;11536;50.860;4.286;2024-01-30T12:57:14;11.80;99.90
22738;DHT22;11536;50.860;4.286;2024-01-30T12:59:40;11.80;99.90
22738;DHT22;11536;50.860;4.286;2024-01-30T13:02:06;11.70;99.90
22738;DHT22;11536;50.860;4.286;2024-01-30T13:04:32;11.70;99.90
22738;DHT22;11536;50.860;4.286;2024-01-30T13:06:58;11.70;99.90
22738;DHT22;11536;50.860;4.286;2024-01-30T13:09:24;11.70;99.90
22738;DHT22;11536;50.860;4.286;2024-01-30T13:11:50;11.60;99.90
22738;DHT22;11536;50.860;4.286;2024-01-30T13:14:17;11.60;99.90
22738;DHT22;11536;50.860;4.286;2024-01-30T13:16:43;11.60;99.90
22738;DHT22;11536;50.860;4.286;2024-01-30T13:19:09;11.50;99.90
22738;DHT22;11536;50.860;4.286;2024-01-30T13:21:35;11.50;99.90
22738;DHT22;11536;50.860;4.286;2024-01-30T13:24:01;11.50;99.90
22738;DHT22;11536;50.860;4.286;2024-01-30T13:26:26;11.50;99.90
22738;DHT22;11536;50.860;4.286;2024-01-30T13:28:52;11.50;99.90
22738;DHT22;11536;50.860;4.286;2024-01-30T13:31:18;11.50;99.90
22738;DHT22;11536;50.860;4.286;2024-01-30T13:33:44;11.50;99.90
22738;DHT22;11536;50.860;4.286;2024-01-30T13:36:11;11.50;99.90
22738;DHT22;11536;50.860;4.286;2024-01-30T13:38:37;11.60;99.90
22738;DHT22;11536;50.860;4.286;2024-01-30T13:41:03;11.70;99.90
22738;DHT22;11536;50.860;4.286;2024-01-30T13:43:29;11.80;99.90
22738;DHT22;11536;50.860;4.286;2024-01-30T13:45:55;11.80;99.90
22738;DHT22;11536;50.860;4.286;2024-01-30T13:48:21;11.80;99.90
22738;DHT22;11536;50.860;4.286;2024-01-30T13:50:47;11.80;99.90
22738;DHT22;11536;50.860;4.286;2024-01-30T13:53:13;11.80;99.90
22738;DHT22;11536;50.860;4.286;2024-01-30T13:55:39;11.80;99.90
22738;DHT22;11536;50.860;4.286;2024-01-30T13:58:05;11.70;99.90
22738;DHT22;11536;50.860;4.286;2024-01-30T14:00:31;11.70;99.90
22738;DHT22;11536;50.860;4.286;2024-01-30T14:02:57;11.70;99.90
22738;DHT22;11536;50.860;4.286;2024-01-30T14:05:24;11.70;99.90
22738;DHT22;11536;50.860;4.286;2024-01-30T14:07:51;11.70;99.90
22738;DHT22;11536;50.860;4.286;2024-01-30T14:10:17;11.70;99.90
22738;DHT22;11536;50.860;4.286;2024-01-30T14:12:43;11.70;99.90
22738;DHT22;11536;50.860;4.286;2024-01-30T14:15:09;11.70;99.90
22738;DHT22;11536;50.860;4.286;2024-01-30T14:17:36;11.70;99.90
22738;DHT22;11536;50.860;4.286;2024-01-30T14:20:03;11.60;99.90
22738;DHT22;11536;50.860;4.286;2024-01-30T14:22:33;11.60;99.90
22738;DHT22;11536;50.860;4.286;2024-01-30T14:25:00;11.60;99.90
22738;DHT22;11536;50.860;4.286;2024-01-30T14:27:25;11.50;99.90
22738;DHT22;11536;50.860;4.286;2024-01-30T14:29:51;11.50;99.90
22738;DHT22;11536;50.860;4.286;2024-01-30T14:32:17;11.40;99.90
22738;DHT22;11536;50.860;4.286;2024-01-30T14:34:42;11.40;99.90
22738;DHT22;11536;50.860;4.286;2024-01-30T14:37:08;11.30;99.90
22738;DHT22;11536;50.860;4.286;2024-01-30T14:39:34;11.30;99.90
22738;DHT22;11536;50.860;4.286;2024-01-30T14:42:03;11.30;99.90
22738;DHT22;11536;50.860;4.286;2024-01-30T14:44:29;11.30;99.90
22738;DHT22;11536;50.860;4.286;2024-01-30T14:46:55;11.30;99.90
22738;DHT22;11536;50.860;4.286;2024-01-30T14:49:20;11.20;99.90
22738;DHT22;11536;50.860;4.286;2024-01-30T14:51:46;11.20;99.90
22738;DHT22;11536;50.860;4.286;2024-01-30T14:54:12;11.20;99.90
22738;DHT22;11536;50.860;4.286;2024-01-30T14:56:37;11.10;99.90
22738;DHT22;11536;50.860;4.286;2024-01-30T14:59:03;11.10;99.90
22738;DHT22;11536;50.860;4.286;2024-01-30T15:01:29;11.10;99.90
22738;DHT22;11536;50.860;4.286;2024-01-30T15:03:54;11.10;99.90
22738;DHT22;11536;50.860;4.286;2024-01-30T15:06:21;11.00;99.90
22738;DHT22;11536;50.860;4.286;2024-01-30T15:08:50;11.00;99.90
22738;DHT22;11536;50.860;4.286;2024-01-30T15:11:15;11.00;99.90
22738;DHT22;11536;50.860;4.286;2024-01-30T15:13:41;11.00;99.90
22738;DHT22;11536;50.860;4.286;2024-01-30T15:16:07;11.00;99.90
22738;DHT22;11536;50.860;4.286;2024-01-30T15:18:33;11.00;99.90
22738;DHT22;11536;50.860;4.286;2024-01-30T15:20:59;11.00;99.90
22738;DHT22;11536;50.860;4.286;2024-01-30T15:23:25;10.90;99.90
22738;DHT22;11536;50.860;4.286;2024-01-30T15:25:50;10.90;99.90
22738;DHT22;11536;50.860;4.286;2024-01-30T15:28:16;10.90;99.90
22738;DHT22;11536;50.860;4.286;2024-01-30T15:30:42;10.90;99.90
22738;DHT22;11536;50.860;4.286;2024-01-30T15:33:09;10.90;99.90